Pine Apple, Alabama
Current Conditions -  °F | °C
As of 6:56 PM on Monday 26 Jan 2015 (Local Time) from KPRN Reporting Station
Clear Clear  
Wind Chill: 43°   Ceiling: Unl
Heat Index: 43°   Visibility: 10mi
Dew Point: 32°   Wind: 0mph
Humidity: 65%   Direction: NA
Pressure: 29.99"   Gusts: NA
Location:  31.87°N, 86.99°W
Report Text: KPRN 270056Z AUTO 00000KT 10SM CLR 06/00 A2999 RMK AO2 SLP156 T00610000
Loading
Personal Weather Stations






























Interactive Weather Map New forecast layout! Learn more

10-Day Weather Forecast

Advertisements
Track Severe Weather on mobile